createdAt,value
2017-11-18T00:00:00.451Z,99776.38
2017-11-18T00:02:28.713Z,99774.91
2017-11-18T00:04:57.004Z,99773.29
2017-11-18T00:07:25.327Z,99769.09
2017-11-18T00:09:53.597Z,99767.50
2017-11-18T00:12:21.863Z,99766.19
2017-11-18T00:14:50.145Z,99767.17
2017-11-18T00:17:18.440Z,99767.80
2017-11-18T00:19:46.722Z,99766.69
2017-11-18T00:22:15.040Z,99746.42
2017-11-18T00:24:43.313Z,99755.71
2017-11-18T00:27:11.573Z,99757.70
2017-11-18T00:29:40.161Z,99761.61
2017-11-18T00:32:08.471Z,99763.44
2017-11-18T00:34:36.749Z,99762.56
2017-11-18T00:37:05.038Z,99760.50
2017-11-18T00:39:34.079Z,99755.81
2017-11-18T00:42:02.335Z,99762.56
2017-11-18T00:44:30.613Z,99762.02
2017-11-18T00:46:58.899Z,99757.98
2017-11-18T00:49:27.227Z,99760.41
2017-11-18T00:51:55.462Z,99749.47
2017-11-18T00:54:23.716Z,99747.97
2017-11-18T00:56:51.989Z,99755.24
2017-11-18T00:59:20.365Z,99751.69
2017-11-18T01:01:48.666Z,99750.37
2017-11-18T01:04:16.988Z,99751.11
2017-11-18T01:06:45.253Z,99739.08
2017-11-18T01:09:13.527Z,99745.38
2017-11-18T01:11:41.804Z,99750.88
2017-11-18T01:14:10.130Z,99752.95
2017-11-18T01:16:38.390Z,99739.05
2017-11-18T01:19:07.227Z,99748.71
2017-11-18T01:21:35.476Z,99751.27
2017-11-18T01:24:03.765Z,99746.25
2017-11-18T01:26:32.084Z,99750.56
2017-11-18T01:29:00.365Z,99756.23
2017-11-18T01:31:28.694Z,99756.75
2017-11-18T01:33:56.933Z,99754.41
2017-11-18T01:36:25.210Z,99763.48
2017-11-18T01:38:53.473Z,99761.09
2017-11-18T01:41:21.776Z,99763.09
2017-11-18T01:43:50.033Z,99756.00
2017-11-18T01:46:18.309Z,99742.27
2017-11-18T01:48:46.597Z,99748.65
2017-11-18T01:51:14.853Z,99740.80
2017-11-18T01:53:43.205Z,99738.16
2017-11-18T01:56:11.498Z,99731.11
2017-11-18T01:58:39.809Z,99733.30
2017-11-18T02:01:08.016Z,99730.91
2017-11-18T02:03:36.297Z,99727.97
2017-11-18T02:06:04.554Z,99718.55
2017-11-18T02:08:32.877Z,99734.95
2017-11-18T02:11:01.117Z,99742.75
2017-11-18T02:13:29.395Z,99725.07
2017-11-18T02:15:57.665Z,99722.11
2017-11-18T02:18:25.925Z,99726.24
2017-11-18T02:20:54.206Z,99704.91
2017-11-18T02:23:22.480Z,99720.67
2017-11-18T02:25:50.777Z,99716.41
2017-11-18T02:28:19.054Z,99720.30
2017-11-18T02:30:47.365Z,99714.73
2017-11-18T02:33:15.879Z,99712.09
2017-11-18T02:35:44.896Z,99716.06
2017-11-18T02:38:13.197Z,99711.97
2017-11-18T02:40:41.481Z,99713.72
2017-11-18T02:43:09.728Z,99710.27
2017-11-18T02:45:38.048Z,99704.81
2017-11-18T02:48:06.750Z,99706.37
2017-11-18T02:50:35.033Z,99700.04
2017-11-18T02:53:03.291Z,99704.23
2017-11-18T02:55:31.553Z,99700.78
2017-11-18T02:57:59.842Z,99694.26
2017-11-18T03:00:28.314Z,99691.00
2017-11-18T03:02:56.610Z,99680.34
2017-11-18T03:05:24.863Z,99680.98
2017-11-18T03:07:53.145Z,99679.33
2017-11-18T03:10:21.457Z,99675.78
2017-11-18T03:12:49.757Z,99684.20
2017-11-18T03:15:18.045Z,99677.28
2017-11-18T03:17:46.307Z,99675.23
2017-11-18T03:20:14.608Z,99673.11
2017-11-18T03:22:42.876Z,99675.95
2017-11-18T03:25:11.157Z,99655.33
2017-11-18T03:27:39.413Z,99653.08
2017-11-18T03:30:07.726Z,99650.32
2017-11-18T03:32:35.981Z,99653.82
2017-11-18T03:35:04.464Z,99654.45
2017-11-18T03:37:32.971Z,99645.06
2017-11-18T03:40:01.227Z,99649.65
2017-11-18T03:42:29.509Z,99651.47
2017-11-18T03:44:57.782Z,99659.61
2017-11-18T03:47:26.081Z,99657.77
2017-11-18T03:49:55.135Z,99660.80
2017-11-18T03:52:23.405Z,99655.47
2017-11-18T03:54:51.747Z,99656.16
2017-11-18T03:57:20.072Z,99662.67
2017-11-18T03:59:48.333Z,99658.80
2017-11-18T04:02:16.587Z,99655.39
2017-11-18T04:04:44.877Z,99663.84
2017-11-18T04:07:13.134Z,99661.48
2017-11-18T04:09:41.390Z,99643.29
2017-11-18T04:12:09.669Z,99657.48
2017-11-18T04:14:37.964Z,99651.11
2017-11-18T04:17:06.245Z,99650.41
2017-11-18T04:19:34.525Z,99655.77
2017-11-18T04:22:03.489Z,99658.04
2017-11-18T04:24:31.777Z,99664.48
2017-11-18T04:27:00.050Z,99660.22
2017-11-18T04:29:28.377Z,99655.30
2017-11-18T04:31:56.653Z,99656.40
2017-11-18T04:34:24.925Z,99652.82
2017-11-18T04:36:53.195Z,99650.63
2017-11-18T04:39:21.533Z,99644.37
2017-11-18T04:41:49.782Z,99651.10
2017-11-18T04:44:18.092Z,99660.63
2017-11-18T04:46:46.362Z,99650.39
2017-11-18T04:49:14.635Z,99647.34
2017-11-18T04:51:42.918Z,99647.81
2017-11-18T04:54:11.261Z,99643.09
2017-11-18T04:56:39.544Z,99648.16
2017-11-18T04:59:07.812Z,99642.47
2017-11-18T05:01:36.244Z,99638.33
2017-11-18T05:04:04.507Z,99632.75
2017-11-18T05:06:32.990Z,99632.64
2017-11-18T05:09:01.258Z,99634.55
2017-11-18T05:11:29.548Z,99633.36
2017-11-18T05:13:57.813Z,99627.20
2017-11-18T05:16:26.110Z,99627.98
2017-11-18T05:18:54.369Z,99627.43
2017-11-18T05:21:22.854Z,99625.37
2017-11-18T05:23:51.100Z,99616.16
2017-11-18T05:26:19.378Z,99627.39
2017-11-18T05:28:47.657Z,99621.98
2017-11-18T05:31:15.944Z,99623.55
2017-11-18T05:33:44.230Z,99627.56
2017-11-18T05:36:12.526Z,99623.36
2017-11-18T05:38:40.815Z,99632.55
2017-11-18T05:41:09.113Z,99627.99
2017-11-18T05:43:37.426Z,99631.10
2017-11-18T05:46:05.666Z,99627.34
2017-11-18T05:48:33.959Z,99626.73
2017-11-18T05:51:02.229Z,99622.09
2017-11-18T05:53:30.641Z,99619.77
2017-11-18T05:55:58.925Z,99625.02
2017-11-18T05:58:27.180Z,99622.48
2017-11-18T06:00:55.489Z,99624.59
2017-11-18T06:03:23.749Z,99626.00
2017-11-18T06:05:52.001Z,99615.32
2017-11-18T06:08:20.338Z,99606.23
2017-11-18T06:10:48.596Z,99624.69
2017-11-18T06:13:16.877Z,99620.27
2017-11-18T06:15:45.135Z,99615.67
2017-11-18T06:18:13.426Z,99611.16
2017-11-18T06:20:41.677Z,99617.47
2017-11-18T06:23:09.968Z,99622.54
2017-11-18T06:25:38.228Z,99614.92
2017-11-18T06:28:06.518Z,99625.16
2017-11-18T06:30:34.781Z,99618.53
2017-11-18T06:33:03.027Z,99622.14
2017-11-18T06:35:31.377Z,99622.90
2017-11-18T06:37:59.637Z,99631.77
2017-11-18T06:40:28.087Z,99629.48
2017-11-18T06:42:56.345Z,99631.31
2017-11-18T06:45:24.634Z,99636.42
2017-11-18T06:47:52.902Z,99637.41
2017-11-18T06:50:21.181Z,99638.05
2017-11-18T06:52:49.455Z,99640.18
2017-11-18T06:55:17.740Z,99641.69
2017-11-18T06:57:46.000Z,99641.52
2017-11-18T07:00:14.559Z,99637.00
2017-11-18T07:02:42.875Z,99627.61
2017-11-18T07:05:11.159Z,99622.52
2017-11-18T07:07:39.426Z,99623.16
2017-11-18T07:10:07.677Z,99625.55
2017-11-18T07:12:35.970Z,99621.53
2017-11-18T07:15:04.253Z,99624.94
2017-11-18T07:17:32.566Z,99625.82
2017-11-18T07:20:01.264Z,99621.61
2017-11-18T07:22:29.591Z,99622.09
2017-11-18T07:24:57.824Z,99619.73
2017-11-18T07:27:26.134Z,99613.63
2017-11-18T07:29:54.405Z,99614.91
2017-11-18T07:32:23.585Z,99618.00
2017-11-18T07:34:51.943Z,99622.59
2017-11-18T07:37:20.226Z,99635.20
2017-11-18T07:39:49.215Z,99640.75
2017-11-18T07:42:17.524Z,99644.88
2017-11-18T07:44:45.821Z,99637.81
2017-11-18T07:47:14.085Z,99650.95
2017-11-18T07:49:42.356Z,99653.73
2017-11-18T07:52:10.620Z,99654.48
2017-11-18T07:54:38.900Z,99657.67
2017-11-18T07:57:07.344Z,99650.95
2017-11-18T07:59:35.621Z,99644.89
2017-11-18T08:02:03.919Z,99630.66
2017-11-18T08:04:32.337Z,99637.50
2017-11-18T08:07:00.636Z,99629.13
2017-11-18T08:09:29.066Z,99649.05
2017-11-18T08:11:57.448Z,99653.91
2017-11-18T08:14:25.744Z,99654.81
2017-11-18T08:16:54.004Z,99656.23
2017-11-18T08:19:22.295Z,99649.49
2017-11-18T08:21:50.727Z,99645.21
2017-11-18T08:24:19.386Z,99642.73
2017-11-18T08:26:47.662Z,99643.07
2017-11-18T08:29:15.952Z,99633.14
2017-11-18T08:31:44.237Z,99643.86
2017-11-18T08:34:12.515Z,99640.48
2017-11-18T08:36:41.891Z,99647.41
2017-11-18T08:39:10.217Z,99646.39
2017-11-18T08:41:38.467Z,99638.97
2017-11-18T08:44:06.809Z,99635.83
2017-11-18T08:46:35.068Z,99642.24
2017-11-18T08:49:03.350Z,99631.28
2017-11-18T08:51:31.649Z,99633.48
2017-11-18T08:53:59.945Z,99629.41
2017-11-18T08:56:28.187Z,99621.68
2017-11-18T08:59:00.509Z,99633.88
2017-11-18T09:01:28.799Z,99634.45
2017-11-18T09:03:57.101Z,99631.31
2017-11-18T09:06:25.356Z,99632.09
2017-11-18T09:08:53.646Z,99627.64
2017-11-18T09:11:21.932Z,99628.59
2017-11-18T09:13:50.210Z,99620.36
2017-11-18T09:16:18.474Z,99625.19
2017-11-18T09:18:46.772Z,99621.58
2017-11-18T09:21:15.033Z,99625.63
2017-11-18T09:23:43.365Z,99621.61
2017-11-18T09:26:11.626Z,99621.13
2017-11-18T09:28:40.166Z,99608.89
2017-11-18T09:31:08.462Z,99629.60
2017-11-18T09:33:36.735Z,99636.21
2017-11-18T09:36:05.026Z,99633.27
2017-11-18T09:38:33.294Z,99641.20
2017-11-18T09:41:01.580Z,99643.79
2017-11-18T09:43:29.997Z,99622.38
2017-11-18T09:45:58.245Z,99647.73
2017-11-18T09:48:26.577Z,99637.48
2017-11-18T09:50:54.853Z,99648.33
2017-11-18T09:53:23.109Z,99645.22
2017-11-18T09:55:51.389Z,99636.66
2017-11-18T09:58:19.708Z,99637.75
2017-11-18T10:00:48.870Z,99636.55
2017-11-18T10:03:17.214Z,99640.09
2017-11-18T10:05:45.473Z,99644.20
2017-11-18T10:08:13.748Z,99647.27
2017-11-18T10:10:42.014Z,99633.98
2017-11-18T10:13:10.315Z,99631.62
2017-11-18T10:15:38.574Z,99619.76
2017-11-18T10:18:06.863Z,99616.48
2017-11-18T10:20:35.168Z,99616.11
2017-11-18T10:23:03.519Z,99608.96
2017-11-18T10:25:31.753Z,99603.70
2017-11-18T10:28:00.029Z,99600.30
2017-11-18T10:30:29.068Z,99608.16
2017-11-18T10:32:57.352Z,99600.61
2017-11-18T10:35:25.629Z,99602.02
2017-11-18T10:37:53.951Z,99598.99
2017-11-18T10:40:22.852Z,99597.72
2017-11-18T10:42:51.160Z,99565.13
2017-11-18T10:45:19.555Z,99599.53
2017-11-18T10:47:47.811Z,99601.19
2017-11-18T10:50:16.370Z,99605.23
2017-11-18T10:52:44.705Z,99609.46
2017-11-18T10:55:12.970Z,99591.31
2017-11-18T10:57:41.492Z,99590.60
2017-11-18T11:00:09.785Z,99604.13
2017-11-18T11:02:38.073Z,99591.44
2017-11-18T11:05:06.387Z,99589.89
2017-11-18T11:07:34.631Z,99580.22
2017-11-18T11:10:02.891Z,99585.41
2017-11-18T11:12:31.173Z,99552.16
2017-11-18T11:14:59.497Z,99570.53
2017-11-18T11:17:27.781Z,99573.50
2017-11-18T11:19:56.080Z,99546.19
2017-11-18T11:22:24.377Z,99570.79
2017-11-18T11:24:52.672Z,99576.28
2017-11-18T11:27:20.942Z,99568.46
2017-11-18T11:29:49.244Z,99562.91
2017-11-18T11:32:17.872Z,99563.34
2017-11-18T11:34:46.138Z,99558.95
2017-11-18T11:37:14.414Z,99566.91
2017-11-18T11:39:42.693Z,99558.95
2017-11-18T11:42:10.961Z,99561.76
2017-11-18T11:44:39.228Z,99550.57
2017-11-18T11:47:07.512Z,99553.79
2017-11-18T11:49:35.816Z,99553.76
2017-11-18T11:52:04.094Z,99543.66
2017-11-18T11:54:32.374Z,99536.39
2017-11-18T11:57:00.627Z,99528.91
2017-11-18T11:59:28.903Z,99528.84
2017-11-18T12:01:57.161Z,99523.88
2017-11-18T12:04:25.429Z,99531.25
2017-11-18T12:06:53.710Z,99521.27
2017-11-18T12:09:21.986Z,99522.59
2017-11-18T12:11:50.252Z,99505.53
2017-11-18T12:14:18.525Z,99517.59
2017-11-18T12:16:46.795Z,99505.13
2017-11-18T12:19:15.096Z,99502.73
2017-11-18T12:21:43.376Z,99507.30
2017-11-18T12:24:11.662Z,99511.66
2017-11-18T12:26:39.933Z,99477.73
2017-11-18T12:29:08.195Z,99506.63
2017-11-18T12:31:36.482Z,99509.43
2017-11-18T12:34:04.763Z,99508.39
2017-11-18T12:36:33.058Z,99457.74
2017-11-18T12:39:01.338Z,99500.06
2017-11-18T12:41:29.773Z,99468.44
2017-11-18T12:43:58.012Z,99472.88
2017-11-18T12:46:26.249Z,99480.55
2017-11-18T12:48:54.533Z,99481.31
2017-11-18T12:51:22.826Z,99475.69
2017-11-18T12:53:51.094Z,99472.04
2017-11-18T12:56:19.581Z,99464.41
2017-11-18T12:58:47.835Z,99459.50
2017-11-18T13:01:16.111Z,99453.38
2017-11-18T13:03:44.382Z,99448.89
2017-11-18T13:06:12.641Z,99442.38
2017-11-18T13:08:40.920Z,99437.39
2017-11-18T13:11:09.200Z,99433.58
2017-11-18T13:13:37.469Z,99438.47
2017-11-18T13:16:05.760Z,99438.57
2017-11-18T13:18:34.058Z,99444.15
2017-11-18T13:21:02.586Z,99435.77
2017-11-18T13:23:31.556Z,99432.46
2017-11-18T13:26:00.873Z,99433.11
2017-11-18T13:28:29.233Z,99416.16
2017-11-18T13:30:57.500Z,99406.31
2017-11-18T13:33:25.853Z,99425.08
2017-11-18T13:35:54.106Z,99431.45
2017-11-18T13:38:22.385Z,99428.92
2017-11-18T13:40:50.637Z,99425.08
2017-11-18T13:43:18.910Z,99420.52
2017-11-18T13:45:47.210Z,99420.89
2017-11-18T13:48:16.802Z,99414.30
2017-11-18T13:50:45.069Z,99399.05
2017-11-18T13:53:13.369Z,99403.95
2017-11-18T13:55:41.682Z,99400.29
2017-11-18T13:58:09.950Z,99402.49
2017-11-18T14:00:39.154Z,99408.09
2017-11-18T14:03:07.405Z,99407.69
2017-11-18T14:05:35.729Z,99391.72
2017-11-18T14:08:03.985Z,99392.13
2017-11-18T14:10:32.262Z,99387.61
2017-11-18T14:13:01.086Z,99397.39
2017-11-18T14:15:29.359Z,99395.80
2017-11-18T14:17:57.604Z,99349.81
2017-11-18T14:20:26.249Z,99400.58
2017-11-18T14:22:54.737Z,99395.20
2017-11-18T14:25:23.012Z,99402.14
2017-11-18T14:27:51.299Z,99400.50
2017-11-18T14:30:19.565Z,99390.84
2017-11-18T14:32:47.861Z,99374.78
2017-11-18T14:35:16.398Z,99416.50
2017-11-18T14:37:44.687Z,99396.39
2017-11-18T14:40:12.975Z,99399.17
2017-11-18T14:42:41.290Z,99397.12
2017-11-18T14:45:09.591Z,99390.13
2017-11-18T14:47:37.849Z,99383.37
2017-11-18T14:50:06.146Z,99379.73
2017-11-18T14:52:34.480Z,99383.88
2017-11-18T14:55:02.884Z,99385.85
2017-11-18T14:57:31.139Z,99391.13
2017-11-18T14:59:59.515Z,99398.20
2017-11-18T15:02:27.768Z,99387.50
2017-11-18T15:04:56.069Z,99388.06
2017-11-18T15:07:24.340Z,99394.02
2017-11-18T15:09:52.648Z,99401.50
2017-11-18T15:12:21.518Z,99404.13
2017-11-18T15:14:55.301Z,99403.27
2017-11-18T15:17:29.087Z,99395.97
2017-11-18T15:20:03.947Z,99400.64
2017-11-18T15:25:44.676Z,99404.72
2017-11-18T15:31:17.817Z,99381.92
2017-11-18T15:33:51.597Z,99395.62
2017-11-18T15:36:22.675Z,99390.27
2017-11-18T15:38:51.437Z,99389.00
2017-11-18T15:41:19.853Z,99385.76
2017-11-18T15:43:53.705Z,99386.21
2017-11-18T15:46:21.988Z,99383.12
2017-11-18T15:51:50.846Z,99398.58
2017-11-18T15:54:24.644Z,99388.19
2017-11-18T15:59:52.420Z,99411.00
2017-11-18T16:02:22.142Z,99390.55
2017-11-18T16:05:02.307Z,99414.87
2017-11-18T16:07:33.998Z,99406.52
2017-11-18T16:10:02.287Z,99410.59
2017-11-18T16:12:30.528Z,99418.47
2017-11-18T16:14:58.818Z,99398.87
2017-11-18T16:17:27.069Z,99405.67
2017-11-18T16:19:55.849Z,99387.87
2017-11-18T16:22:24.153Z,99423.04
2017-11-18T16:24:52.411Z,99399.58
2017-11-18T16:27:20.681Z,99406.66
2017-11-18T16:29:48.963Z,99346.78
2017-11-18T16:32:17.229Z,99396.47
2017-11-18T16:34:45.496Z,99390.20
2017-11-18T16:37:13.840Z,99401.50
2017-11-18T16:39:42.325Z,99394.77
2017-11-18T16:42:10.628Z,99390.53
2017-11-18T16:44:38.875Z,99396.46
2017-11-18T16:47:07.122Z,99389.05
2017-11-18T16:49:35.430Z,99379.46
2017-11-18T16:52:03.681Z,99378.38
2017-11-18T16:54:31.957Z,99367.52
2017-11-18T16:57:00.523Z,99371.87
2017-11-18T16:59:28.813Z,99375.00
2017-11-18T17:01:57.095Z,99381.50
2017-11-18T17:04:25.380Z,99351.38
2017-11-18T17:06:53.642Z,99365.29
2017-11-18T17:09:21.972Z,99372.20
2017-11-18T17:11:50.268Z,99374.78
2017-11-18T17:14:18.563Z,99380.04
2017-11-18T17:16:46.911Z,99373.52
2017-11-18T17:19:15.196Z,99377.13
2017-11-18T17:21:43.481Z,99373.98
2017-11-18T17:24:11.754Z,99359.41
2017-11-18T17:26:40.153Z,99374.00
2017-11-18T17:29:08.428Z,99369.40
2017-11-18T17:31:36.762Z,99358.11
2017-11-18T17:34:05.114Z,99355.77
2017-11-18T17:36:33.464Z,99347.61
2017-11-18T17:39:01.802Z,99345.13
2017-11-18T17:41:30.153Z,99343.31
2017-11-18T17:43:58.413Z,99334.06
2017-11-18T17:46:26.709Z,99344.06
2017-11-18T17:48:54.968Z,99344.73
2017-11-18T17:51:23.286Z,99329.43
2017-11-18T17:53:54.505Z,99324.52
2017-11-18T17:56:22.827Z,99318.70
2017-11-18T17:58:51.180Z,99319.95
2017-11-18T18:01:19.554Z,99322.70
2017-11-18T18:03:47.809Z,99328.36
2017-11-18T18:06:16.057Z,99328.16
2017-11-18T18:08:44.329Z,99314.98
2017-11-18T18:11:12.611Z,99309.43
2017-11-18T18:13:40.948Z,99314.91
2017-11-18T18:16:09.229Z,99300.89
2017-11-18T18:18:38.248Z,99284.95
2017-11-18T18:21:06.518Z,99312.52
2017-11-18T18:23:34.865Z,99324.00
2017-11-18T18:26:03.214Z,99317.13
2017-11-18T18:28:31.490Z,99325.75
2017-11-18T18:31:00.370Z,99323.83
2017-11-18T18:33:28.646Z,99282.42
2017-11-18T18:35:56.937Z,99318.44
2017-11-18T18:38:25.243Z,99318.72
2017-11-18T18:40:53.530Z,99319.75
2017-11-18T18:43:21.825Z,99311.41
2017-11-18T18:45:50.130Z,99331.42
2017-11-18T18:48:18.404Z,99304.62
2017-11-18T18:50:46.782Z,99290.93
2017-11-18T18:53:15.061Z,99299.14
2017-11-18T18:55:43.345Z,99266.05
2017-11-18T18:58:11.634Z,99287.36
2017-11-18T19:00:39.965Z,99281.14
2017-11-18T19:03:08.931Z,99284.50
2017-11-18T19:05:37.198Z,99281.33
2017-11-18T19:08:05.805Z,99280.16
2017-11-18T19:10:34.111Z,99289.64
2017-11-18T19:13:02.470Z,99287.13
2017-11-18T19:15:30.885Z,99269.03
2017-11-18T19:17:59.137Z,99291.57
2017-11-18T19:20:27.745Z,99282.25
2017-11-18T19:22:56.037Z,99295.20
2017-11-18T19:25:24.320Z,99309.09
2017-11-18T19:27:52.602Z,99307.98
2017-11-18T19:30:20.862Z,99295.27
2017-11-18T19:32:49.157Z,99307.08
2017-11-18T19:35:17.520Z,99306.64
2017-11-18T19:37:45.785Z,99304.65
2017-11-18T19:40:14.987Z,99298.26
2017-11-18T19:42:43.246Z,99306.20
2017-11-18T19:45:11.558Z,99295.67
2017-11-18T19:47:39.907Z,99288.09
2017-11-18T19:50:08.226Z,99291.80
2017-11-18T19:52:36.533Z,99288.33
2017-11-18T19:55:04.937Z,99301.35
2017-11-18T19:57:33.218Z,99289.08
2017-11-18T20:00:01.473Z,99299.97
2017-11-18T20:02:29.781Z,99290.49
2017-11-18T20:04:58.073Z,99290.89
2017-11-18T20:07:26.354Z,99236.12
2017-11-18T20:09:54.605Z,99288.87
2017-11-18T20:12:22.891Z,99267.63
2017-11-18T20:14:51.204Z,99277.22
2017-11-18T20:17:19.506Z,99276.01
2017-11-18T20:19:47.829Z,99268.44
2017-11-18T20:22:16.105Z,99271.04
2017-11-18T20:24:44.393Z,99271.34
2017-11-18T20:27:12.684Z,99264.41
2017-11-18T20:29:40.961Z,99267.88
2017-11-18T20:32:09.250Z,99265.52
2017-11-18T20:34:37.537Z,99262.84
2017-11-18T20:37:05.812Z,99259.57
2017-11-18T20:39:34.511Z,99253.89
2017-11-18T20:42:02.743Z,99255.38
2017-11-18T20:44:31.013Z,99245.22
2017-11-18T20:46:59.313Z,99242.74
2017-11-18T20:49:27.564Z,99237.89
2017-11-18T20:51:55.880Z,99242.00
2017-11-18T20:54:24.173Z,99238.81
2017-11-18T20:56:52.472Z,99240.46
2017-11-18T20:59:20.729Z,99242.59
2017-11-18T21:01:49.024Z,99239.05
2017-11-18T21:04:17.326Z,99235.34
2017-11-18T21:06:45.605Z,99228.78
2017-11-18T21:09:13.889Z,99214.08
2017-11-18T21:11:42.157Z,99189.64
2017-11-18T21:14:10.459Z,99204.59
2017-11-18T21:16:38.772Z,99187.02
2017-11-18T21:19:07.100Z,99196.66
2017-11-18T21:21:35.373Z,99201.97
2017-11-18T21:24:04.619Z,99178.98
2017-11-18T21:26:32.878Z,99193.20
2017-11-18T21:29:01.169Z,99191.47
2017-11-18T21:31:29.582Z,99185.99
2017-11-18T21:33:57.881Z,99187.48
2017-11-18T21:36:26.145Z,99184.34
2017-11-18T21:38:54.420Z,99192.52
2017-11-18T21:41:22.797Z,99172.72
2017-11-18T21:43:51.118Z,99170.10
2017-11-18T21:46:19.451Z,99174.95
2017-11-18T21:48:47.729Z,99162.61
2017-11-18T21:51:16.045Z,99164.48
2017-11-18T21:53:44.298Z,99153.20
2017-11-18T21:56:12.581Z,99166.54
2017-11-18T21:58:41.421Z,99154.48
2017-11-18T22:01:09.716Z,99142.02
2017-11-18T22:03:38.009Z,99151.50
2017-11-18T22:06:06.270Z,99159.19
2017-11-18T22:08:34.560Z,99135.29
2017-11-18T22:11:02.828Z,99135.61
2017-11-18T22:13:31.136Z,99136.84
2017-11-18T22:15:59.441Z,99138.98
2017-11-18T22:18:27.738Z,99136.44
2017-11-18T22:20:56.023Z,99137.67
2017-11-18T22:23:24.409Z,99117.87
2017-11-18T22:25:52.664Z,99093.49
2017-11-18T22:28:20.959Z,99080.10
2017-11-18T22:30:49.216Z,99074.29
2017-11-18T22:33:18.059Z,99098.03
2017-11-18T22:35:46.439Z,99108.40
2017-11-18T22:38:14.791Z,99078.02
2017-11-18T22:40:43.061Z,99087.36
2017-11-18T22:43:11.340Z,99088.16
2017-11-18T22:45:39.626Z,99072.03
2017-11-18T22:48:08.483Z,99063.52
2017-11-18T22:50:37.226Z,99075.14
2017-11-18T22:53:06.241Z,99070.89
2017-11-18T22:55:34.515Z,99060.31
2017-11-18T22:58:04.801Z,99060.71
2017-11-18T23:00:40.964Z,99056.52
2017-11-18T23:03:09.208Z,99048.63
2017-11-18T23:05:37.484Z,99031.50
2017-11-18T23:08:05.805Z,99033.70
2017-11-18T23:10:34.094Z,99044.19
2017-11-18T23:13:02.431Z,99040.37
2017-11-18T23:15:30.702Z,99026.33
2017-11-18T23:17:58.961Z,99020.98
2017-11-18T23:20:27.386Z,99015.56
2017-11-18T23:22:55.682Z,99011.04
2017-11-18T23:25:23.946Z,99017.37
2017-11-18T23:27:52.306Z,99031.01
2017-11-18T23:30:20.568Z,99023.27
2017-11-18T23:32:48.844Z,99019.05
2017-11-18T23:35:17.236Z,99021.61
2017-11-18T23:37:45.490Z,99018.64
2017-11-18T23:40:13.831Z,99018.75
2017-11-18T23:42:42.063Z,99008.88
2017-11-18T23:45:10.346Z,99020.80
2017-11-18T23:47:38.633Z,99012.78
2017-11-18T23:50:06.913Z,99021.69
2017-11-18T23:52:35.160Z,98996.31
2017-11-18T23:55:03.449Z,99003.49
2017-11-18T23:57:31.713Z,98982.50
2017-11-18T23:59:59.992Z,98982.64
